Time;durP1;ratioP1;P1;durP2;ratioP2;P2;SDS_P1;SDS_P2;PMS_P1;PMS_P2;Temp;Humidity;BMP_temperature;BMP_pressure;BME280_temperature;BME280_humidity;BME280_pressure;Samples;Min_cycle;Max_cycle;Signal;HPM_P1;HPM_P2
2023/05/14 00:01:50;;;;;;;10.25;6.25;;;12.90;99.90;;;;;;4995948;28;20383;-68
2023/05/14 00:04:18;;;;;;;11.43;6.47;;;13.00;99.90;;;;;;4996340;28;20475;-68
2023/05/14 00:06:44;;;;;;;9.73;6.32;;;12.90;99.90;;;;;;4995811;28;20050;-68
2023/05/14 00:09:10;;;;;;;10.85;6.57;;;12.90;99.90;;;;;;4995088;28;20060;-68
2023/05/14 00:11:36;;;;;;;8.18;6.18;;;12.90;99.90;;;;;;4978603;28;20137;-68
2023/05/14 00:14:02;;;;;;;9.10;6.53;;;12.90;99.90;;;;;;4996155;28;20121;-67
2023/05/14 00:16:28;;;;;;;9.55;6.60;;;12.90;99.90;;;;;;4995630;28;20100;-68
2023/05/14 00:18:53;;;;;;;9.65;6.13;;;12.90;99.90;;;;;;4995669;28;20043;-68
2023/05/14 00:21:19;;;;;;;10.07;6.40;;;12.90;99.90;;;;;;4995524;28;20046;-68
2023/05/14 00:23:45;;;;;;;11.07;6.72;;;12.90;99.90;;;;;;4978297;28;20097;-67
2023/05/14 00:26:11;;;;;;;8.38;5.38;;;12.90;99.90;;;;;;4994364;28;20053;-68
2023/05/14 00:28:36;;;;;;;8.75;5.80;;;12.90;99.90;;;;;;4995963;28;20050;-68
2023/05/14 00:31:02;;;;;;;9.02;6.15;;;12.90;99.90;;;;;;4995943;28;20125;-68
2023/05/14 00:33:28;;;;;;;11.50;6.10;;;12.80;99.90;;;;;;4995331;28;20053;-67
2023/05/14 00:35:53;;;;;;;10.60;5.90;;;12.80;99.90;;;;;;4978253;28;20080;-68
2023/05/14 00:38:19;;;;;;;10.55;6.43;;;12.80;99.90;;;;;;4995885;28;20496;-67
2023/05/14 00:40:50;;;;;;;10.77;6.88;;;12.80;99.90;;;;;;4995645;28;20097;-67
2023/05/14 00:43:18;;;;;;;12.20;6.88;;;12.70;99.90;;;;;;4995618;28;20097;-67
2023/05/14 00:45:44;;;;;;;12.40;6.80;;;12.70;99.90;;;;;;4962717;28;20050;-67
2023/05/14 00:48:10;;;;;;;11.30;6.20;;;12.70;99.90;;;;;;4997334;28;20074;-68
2023/05/14 00:50:36;;;;;;;8.43;5.90;;;12.70;99.90;;;;;;4998514;28;20069;-68
2023/05/14 00:53:03;;;;;;;10.90;6.07;;;12.70;99.90;;;;;;4996397;28;20063;-68
2023/05/14 00:55:29;;;;;;;11.52;6.20;;;12.70;99.90;;;;;;4994942;28;20347;-67
2023/05/14 00:57:57;;;;;;;13.80;6.47;;;12.70;99.90;;;;;;4994796;28;20050;-68
2023/05/14 01:00:23;;;;;;;10.15;6.30;;;12.70;99.90;;;;;;4994474;28;20182;-67
2023/05/14 01:02:49;;;;;;;11.07;6.53;;;12.70;99.90;;;;;;4993496;28;20506;-68
2023/05/14 01:05:15;;;;;;;9.77;6.60;;;12.60;99.90;;;;;;4994596;28;20046;-68
2023/05/14 01:07:52;;;;;;;10.05;6.78;;;12.60;99.90;;;;;;4994839;28;20053;-68
2023/05/14 01:10:36;;;;;;;12.77;6.97;;;12.60;99.90;;;;;;4977495;28;20402;-68
2023/05/14 01:13:27;;;;;;;9.45;6.55;;;12.50;99.90;;;;;;4994592;28;20054;-68
2023/05/14 01:15:57;;;;;;;12.50;7.15;;;12.50;99.90;;;;;;4988936;28;20518;-68
2023/05/14 01:18:24;;;;;;;11.80;7.20;;;12.50;99.90;;;;;;4993383;28;20046;-68
2023/05/14 01:20:53;;;;;;;11.55;6.40;;;12.50;99.90;;;;;;4994523;28;20050;-68
2023/05/14 01:23:18;;;;;;;10.02;6.85;;;12.40;99.90;;;;;;4994560;28;20089;-68
2023/05/14 01:25:44;;;;;;;9.32;7.22;;;12.40;99.90;;;;;;4993249;28;20081;-67
2023/05/14 01:28:26;;;;;;;12.77;7.38;;;12.40;99.90;;;;;;4994462;28;20058;-67
2023/05/14 01:31:18;;;;;;;10.02;6.75;;;12.30;99.90;;;;;;4994402;28;20046;-67
2023/05/14 01:33:46;;;;;;;9.70;7.25;;;12.30;99.90;;;;;;4994464;28;20058;-68
2023/05/14 01:36:12;;;;;;;12.48;7.55;;;12.30;99.90;;;;;;4994347;28;20436;-67
2023/05/14 01:38:38;;;;;;;9.82;7.05;;;12.30;99.90;;;;;;4994277;28;20117;-68
2023/05/14 01:41:05;;;;;;;13.38;7.43;;;12.30;99.90;;;;;;4994679;28;20513;-68
2023/05/14 01:43:31;;;;;;;11.52;7.72;;;12.30;99.90;;;;;;4994605;28;20046;-68
2023/05/14 01:45:56;;;;;;;14.63;8.23;;;12.30;99.90;;;;;;4994108;28;20399;-67
2023/05/14 01:48:22;;;;;;;11.82;7.65;;;12.30;99.90;;;;;;4993092;28;20046;-67
2023/05/14 01:50:48;;;;;;;8.80;7.10;;;12.20;99.90;;;;;;4994266;28;20418;-67
2023/05/14 01:53:13;;;;;;;12.20;7.95;;;12.20;99.90;;;;;;4994264;28;20042;-67
2023/05/14 01:55:39;;;;;;;12.13;7.65;;;12.20;99.90;;;;;;4993006;28;20128;-68
2023/05/14 01:58:05;;;;;;;14.95;8.70;;;12.20;99.90;;;;;;4994160;28;20046;-68
2023/05/14 02:00:30;;;;;;;15.38;8.10;;;12.20;99.90;;;;;;4994105;28;20063;-67
2023/05/14 02:02:56;;;;;;;9.40;7.88;;;12.20;99.90;;;;;;4994614;28;20050;-68
2023/05/14 02:05:22;;;;;;;11.82;8.05;;;12.20;99.90;;;;;;4994028;28;20038;-68
2023/05/14 02:07:47;;;;;;;15.85;8.52;;;12.10;99.90;;;;;;4994799;28;20046;-67
2023/05/14 02:10:13;;;;;;;10.05;7.32;;;12.10;99.90;;;;;;4994064;28;20375;-68
2023/05/14 02:12:39;;;;;;;13.43;8.07;;;12.10;99.90;;;;;;4997847;28;20145;-68
2023/05/14 02:15:07;;;;;;;11.30;7.63;;;12.00;99.90;;;;;;4998570;28;20081;-67
2023/05/14 02:17:33;;;;;;;12.15;8.23;;;12.00;99.90;;;;;;4997947;28;20507;-67
2023/05/14 02:19:58;;;;;;;11.05;7.32;;;12.00;99.90;;;;;;4996939;28;20173;-68
2023/05/14 02:22:24;;;;;;;12.95;8.48;;;12.00;99.90;;;;;;4998148;28;20371;-68
2023/05/14 02:24:50;;;;;;;13.68;8.38;;;12.00;99.90;;;;;;4998379;28;20043;-68
2023/05/14 02:27:16;;;;;;;11.25;8.32;;;12.00;99.90;;;;;;4998070;28;20058;-67
2023/05/14 02:29:41;;;;;;;12.95;7.82;;;12.00;99.90;;;;;;4997703;28;20050;-67
2023/05/14 02:32:07;;;;;;;11.25;7.47;;;12.00;99.90;;;;;;4997694;28;20055;-68
2023/05/14 02:34:33;;;;;;;12.45;8.40;;;12.00;99.90;;;;;;4996338;28;20130;-68
2023/05/14 02:36:59;;;;;;;10.98;7.22;;;12.00;99.90;;;;;;4997643;28;20046;-67
2023/05/14 02:39:25;;;;;;;12.77;7.60;;;12.00;99.90;;;;;;4996526;28;20099;-68
2023/05/14 02:41:50;;;;;;;12.07;7.60;;;11.90;99.90;;;;;;4997218;28;20125;-68
2023/05/14 02:44:16;;;;;;;11.68;7.90;;;11.90;99.90;;;;;;4996069;28;20073;-67
2023/05/14 02:46:42;;;;;;;14.95;7.85;;;11.90;99.90;;;;;;4996689;28;20089;-68
2023/05/14 02:49:08;;;;;;;11.75;7.70;;;11.90;99.90;;;;;;4997504;28;20042;-68
2023/05/14 02:51:33;;;;;;;13.43;8.27;;;11.90;99.90;;;;;;4997369;28;20109;-68
2023/05/14 02:53:59;;;;;;;12.35;8.02;;;11.90;99.90;;;;;;4997264;28;20060;-67
2023/05/14 02:56:25;;;;;;;12.43;7.47;;;11.80;99.90;;;;;;4997137;28;20061;-68
2023/05/14 02:58:51;;;;;;;12.95;7.93;;;11.80;99.90;;;;;;4997002;28;20173;-68
2023/05/14 03:01:17;;;;;;;9.57;7.35;;;11.80;99.90;;;;;;4995849;28;20046;-68
2023/05/14 03:03:43;;;;;;;11.27;7.60;;;11.80;99.90;;;;;;4996986;28;20050;-68
2023/05/14 03:06:09;;;;;;;13.05;7.80;;;11.80;99.90;;;;;;4997689;28;20153;-68
2023/05/14 03:08:34;;;;;;;10.25;7.65;;;11.70;99.90;;;;;;4996218;28;20489;-68
2023/05/14 03:11:00;;;;;;;10.93;8.10;;;11.70;99.90;;;;;;4995665;28;20046;-68
2023/05/14 03:13:26;;;;;;;11.65;8.05;;;11.70;99.90;;;;;;4996813;28;20050;-68
2023/05/14 03:15:55;;;;;;;12.38;8.52;;;11.70;99.90;;;;;;4995699;28;20098;-68
2023/05/14 03:18:21;;;;;;;14.77;8.25;;;11.60;99.90;;;;;;4995621;28;20050;-68
2023/05/14 03:20:47;;;;;;;15.55;8.40;;;11.60;99.90;;;;;;4996519;28;20053;-68
2023/05/14 03:23:14;;;;;;;13.52;9.05;;;11.60;99.90;;;;;;4996208;28;20057;-68
2023/05/14 03:25:40;;;;;;;11.52;8.07;;;11.50;99.90;;;;;;4996652;28;20104;-68
2023/05/14 03:28:05;;;;;;;13.00;8.55;;;11.50;99.90;;;;;;4996605;28;20054;-68
2023/05/14 03:30:31;;;;;;;14.85;9.07;;;11.50;99.90;;;;;;4996538;28;20046;-68
2023/05/14 03:32:58;;;;;;;11.55;8.07;;;11.50;99.90;;;;;;4996666;28;20077;-68
2023/05/14 03:35:23;;;;;;;15.30;8.93;;;11.50;99.90;;;;;;4997137;28;20077;-68
2023/05/14 03:37:51;;;;;;;13.10;8.65;;;11.50;99.90;;;;;;4996564;28;20046;-68
2023/05/14 03:40:17;;;;;;;12.20;8.60;;;11.50;99.90;;;;;;4996424;28;20094;-68
2023/05/14 03:42:43;;;;;;;12.25;8.68;;;11.50;99.90;;;;;;4996399;28;20501;-68
2023/05/14 03:45:09;;;;;;;12.38;8.60;;;11.40;99.90;;;;;;4995448;28;20531;-68
2023/05/14 03:47:34;;;;;;;14.63;8.50;;;11.50;99.90;;;;;;4995019;28;20053;-68
2023/05/14 03:50:00;;;;;;;15.65;9.60;;;11.50;99.90;;;;;;4994949;28;20055;-68
2023/05/14 03:52:26;;;;;;;11.65;8.57;;;11.50;99.90;;;;;;4996073;28;20042;-68
2023/05/14 03:54:51;;;;;;;15.65;8.50;;;11.50;99.90;;;;;;4996841;28;20085;-68
2023/05/14 03:57:17;;;;;;;14.50;8.32;;;11.50;99.90;;;;;;4996096;28;20441;-68
2023/05/14 03:59:43;;;;;;;12.95;8.25;;;11.50;99.90;;;;;;4994800;28;20058;-68
2023/05/14 04:02:08;;;;;;;14.55;8.05;;;11.50;99.90;;;;;;4995798;28;20051;-68
2023/05/14 04:04:34;;;;;;;13.93;8.15;;;11.50;99.90;;;;;;4995885;28;20092;-68
2023/05/14 04:07:00;;;;;;;11.70;8.43;;;11.50;99.90;;;;;;4995811;28;20133;-68
2023/05/14 04:09:25;;;;;;;13.05;8.20;;;11.50;99.90;;;;;;4995750;28;20108;-69
2023/05/14 04:11:51;;;;;;;16.95;8.43;;;11.50;99.90;;;;;;4995663;28;20053;-68
2023/05/14 04:14:16;;;;;;;14.25;8.52;;;11.50;99.90;;;;;;4995658;28;20049;-68
2023/05/14 04:16:42;;;;;;;16.75;9.00;;;11.50;99.90;;;;;;4994970;28;20042;-68
2023/05/14 04:19:08;;;;;;;12.15;7.35;;;11.50;99.90;;;;;;4994701;28;20049;-68
2023/05/14 04:21:33;;;;;;;14.38;8.43;;;11.50;99.90;;;;;;4995333;28;20050;-68
2023/05/14 04:23:59;;;;;;;12.85;8.02;;;11.50;99.90;;;;;;4995703;28;20128;-68
2023/05/14 04:26:25;;;;;;;13.55;8.70;;;11.50;99.90;;;;;;4996049;28;20057;-68
2023/05/14 04:28:51;;;;;;;12.30;8.77;;;11.50;99.90;;;;;;4995132;28;20177;-68
2023/05/14 04:31:17;;;;;;;11.73;8.48;;;11.60;99.90;;;;;;4995982;28;20046;-68
2023/05/14 04:33:43;;;;;;;11.88;8.35;;;11.60;99.90;;;;;;4994533;28;20384;-68
2023/05/14 04:36:08;;;;;;;15.05;9.82;;;11.60;99.90;;;;;;4995245;28;20185;-68
2023/05/14 04:38:34;;;;;;;16.05;8.80;;;11.60;99.90;;;;;;4995193;28;20046;-68
2023/05/14 04:41:00;;;;;;;12.73;8.65;;;11.70;99.90;;;;;;4995179;28;20050;-68
2023/05/14 04:43:25;;;;;;;12.43;8.68;;;11.70;99.90;;;;;;4995828;28;20050;-68
2023/05/14 04:45:51;;;;;;;13.27;9.13;;;11.80;99.90;;;;;;4995890;28;20340;-68
2023/05/14 04:48:17;;;;;;;14.18;8.70;;;11.80;99.90;;;;;;4995066;28;20042;-68
2023/05/14 04:50:43;;;;;;;15.23;8.55;;;11.90;99.90;;;;;;4995572;28;20493;-68
2023/05/14 04:53:09;;;;;;;18.00;9.00;;;11.90;99.90;;;;;;4995617;28;20141;-68
2023/05/14 04:55:35;;;;;;;12.95;8.20;;;11.90;99.90;;;;;;4993864;28;20046;-68
2023/05/14 04:58:01;;;;;;;14.68;7.85;;;12.00;99.90;;;;;;4995742;28;20150;-67
2023/05/14 05:00:27;;;;;;;14.35;8.43;;;12.10;99.90;;;;;;4994488;28;20558;-67
2023/05/14 05:02:53;;;;;;;15.00;8.27;;;12.10;99.90;;;;;;4994823;28;20171;-68
2023/05/14 05:05:19;;;;;;;12.77;7.65;;;12.10;99.90;;;;;;4994387;28;20046;-67
2023/05/14 05:07:45;;;;;;;10.02;7.32;;;12.10;99.90;;;;;;4995241;28;20434;-68
2023/05/14 05:10:10;;;;;;;12.02;7.40;;;12.10;99.90;;;;;;4994697;28;20133;-68
2023/05/14 05:12:36;;;;;;;13.25;8.18;;;12.10;99.90;;;;;;4994483;28;20050;-67
2023/05/14 05:15:02;;;;;;;11.27;7.15;;;12.10;99.90;;;;;;4994610;28;20069;-68
2023/05/14 05:17:29;;;;;;;14.20;7.80;;;12.20;99.90;;;;;;4994734;28;20050;-68
2023/05/14 05:19:54;;;;;;;13.23;7.22;;;12.20;99.90;;;;;;4995458;28;20379;-68
2023/05/14 05:22:20;;;;;;;9.07;6.88;;;12.30;99.90;;;;;;4995099;28;20053;-68
2023/05/14 05:24:46;;;;;;;10.93;7.30;;;12.30;99.90;;;;;;4994997;28;20096;-68
2023/05/14 05:27:12;;;;;;;10.77;6.93;;;12.30;99.90;;;;;;4993605;28;20394;-68
2023/05/14 05:29:37;;;;;;;12.10;6.80;;;12.30;99.90;;;;;;4993570;28;20042;-68
2023/05/14 05:32:04;;;;;;;12.85;7.68;;;12.30;99.90;;;;;;4993431;28;20054;-68
2023/05/14 05:34:30;;;;;;;13.23;7.78;;;12.40;99.90;;;;;;4995240;28;20129;-68
2023/05/14 05:36:55;;;;;;;11.50;6.97;;;12.50;99.90;;;;;;4994383;28;20541;-68
2023/05/14 05:39:21;;;;;;;10.68;6.88;;;12.50;99.90;;;;;;4994557;28;20050;-68
2023/05/14 05:41:47;;;;;;;16.85;7.47;;;12.50;99.90;;;;;;4994255;28;20485;-67
2023/05/14 05:44:12;;;;;;;11.55;7.38;;;12.60;99.90;;;;;;4994009;28;20107;-68
2023/05/14 05:46:38;;;;;;;12.15;8.07;;;12.60;99.90;;;;;;4994968;28;20053;-68
2023/05/14 05:49:04;;;;;;;14.90;7.63;;;12.60;99.90;;;;;;4994533;28;20448;-68
2023/05/14 05:51:30;;;;;;;11.35;7.90;;;12.70;99.90;;;;;;4994183;28;20046;-68
2023/05/14 05:53:56;;;;;;;9.77;6.88;;;12.70;99.90;;;;;;4994256;28;20042;-68
2023/05/14 05:56:21;;;;;;;10.68;7.55;;;12.80;99.90;;;;;;4993015;28;20057;-68
2023/05/14 05:58:47;;;;;;;13.10;8.05;;;12.80;99.90;;;;;;4994945;28;20042;-68
2023/05/14 06:01:13;;;;;;;14.65;7.70;;;12.80;99.90;;;;;;4994726;28;20549;-68
2023/05/14 06:03:38;;;;;;;15.38;8.02;;;12.90;99.90;;;;;;4994105;28;20153;-68
2023/05/14 06:06:05;;;;;;;10.35;8.35;;;12.90;99.90;;;;;;4994457;28;20438;-68
2023/05/14 06:08:31;;;;;;;16.42;8.50;;;12.90;99.90;;;;;;4993011;28;20086;-68
2023/05/14 06:10:56;;;;;;;12.45;8.40;;;13.00;99.90;;;;;;4993673;28;20081;-68
2023/05/14 06:13:22;;;;;;;13.45;8.43;;;13.00;99.90;;;;;;4994409;28;20132;-68
2023/05/14 06:15:48;;;;;;;12.02;9.10;;;13.00;99.90;;;;;;4994111;28;20101;-68
2023/05/14 06:18:13;;;;;;;14.50;7.95;;;13.10;99.90;;;;;;4993946;28;20049;-68
2023/05/14 06:20:40;;;;;;;14.82;8.98;;;13.10;99.90;;;;;;4994185;28;20133;-67
2023/05/14 06:23:06;;;;;;;13.00;8.68;;;13.20;99.90;;;;;;4993640;28;20058;-67
2023/05/14 06:25:32;;;;;;;11.73;8.15;;;13.10;99.90;;;;;;4992914;28;20541;-67
2023/05/14 06:27:58;;;;;;;11.85;8.57;;;13.20;99.90;;;;;;4993629;28;20491;-67
2023/05/14 06:30:24;;;;;;;17.08;8.75;;;13.30;99.90;;;;;;4993895;28;20051;-67
2023/05/14 06:32:50;;;;;;;13.15;8.30;;;13.30;99.90;;;;;;4993867;28;20046;-67
2023/05/14 06:35:17;;;;;;;13.95;8.38;;;13.40;99.90;;;;;;4993789;28;20082;-67
2023/05/14 06:37:43;;;;;;;12.93;8.52;;;13.40;99.90;;;;;;4992563;28;20486;-67
2023/05/14 06:40:10;;;;;;;18.17;8.88;;;13.50;99.90;;;;;;4993689;28;20053;-67
2023/05/14 06:42:35;;;;;;;14.88;8.50;;;13.50;99.90;;;;;;4992514;28;20042;-67
2023/05/14 06:45:01;;;;;;;13.65;7.35;;;13.60;99.90;;;;;;4994119;28;20050;-67
2023/05/14 06:47:27;;;;;;;12.70;7.68;;;13.70;99.90;;;;;;4992475;28;20126;-67
2023/05/14 06:49:52;;;;;;;10.35;6.93;;;13.80;99.90;;;;;;4993551;28;20050;-67
2023/05/14 06:52:18;;;;;;;11.35;8.13;;;13.90;99.90;;;;;;4993129;28;20058;-67
2023/05/14 06:54:44;;;;;;;13.32;7.90;;;14.00;99.90;;;;;;4993702;28;20091;-68
2023/05/14 06:57:10;;;;;;;13.38;8.30;;;14.10;99.90;;;;;;4994865;28;20064;-67
2023/05/14 06:59:35;;;;;;;15.93;9.50;;;14.10;99.90;;;;;;4997049;28;20438;-67
2023/05/14 07:02:02;;;;;;;16.15;9.10;;;14.20;99.90;;;;;;4997089;28;20083;-67
2023/05/14 07:04:27;;;;;;;14.10;8.85;;;14.30;99.90;;;;;;4997288;28;20082;-67
2023/05/14 07:06:53;;;;;;;12.32;8.23;;;14.40;99.90;;;;;;4997045;28;20498;-67
2023/05/14 07:09:19;;;;;;;13.07;8.43;;;14.40;99.90;;;;;;4997569;28;20060;-67
2023/05/14 07:11:44;;;;;;;12.15;7.70;;;14.50;99.90;;;;;;4980071;28;20046;-67
2023/05/14 07:14:10;;;;;;;13.68;8.18;;;14.60;99.90;;;;;;4996862;28;20089;-67
2023/05/14 07:16:36;;;;;;;13.45;8.32;;;14.60;99.90;;;;;;4996564;28;20046;-67
2023/05/14 07:19:01;;;;;;;12.68;7.10;;;14.70;99.90;;;;;;4997636;28;20092;-67
2023/05/14 07:21:27;;;;;;;12.10;7.55;;;14.70;99.90;;;;;;4996700;28;20050;-67
2023/05/14 07:23:53;;;;;;;10.88;7.07;;;14.70;99.90;;;;;;4997562;28;20120;-67
2023/05/14 07:26:20;;;;;;;13.55;7.32;;;14.80;99.90;;;;;;4995764;28;20072;-67
2023/05/14 07:28:45;;;;;;;13.27;7.80;;;14.80;99.90;;;;;;4997197;28;20057;-67
2023/05/14 07:31:11;;;;;;;9.60;7.25;;;14.80;99.90;;;;;;4996545;28;20121;-67
2023/05/14 07:33:37;;;;;;;14.18;8.55;;;14.90;99.90;;;;;;4995457;28;20053;-68
2023/05/14 07:36:04;;;;;;;12.68;8.15;;;14.90;99.90;;;;;;4996501;28;20375;-67
2023/05/14 07:38:31;;;;;;;11.60;7.78;;;14.90;99.90;;;;;;4996513;28;20117;-68
2023/05/14 07:40:56;;;;;;;13.65;8.63;;;14.90;99.90;;;;;;4996472;28;20050;-68
2023/05/14 07:43:22;;;;;;;11.10;8.27;;;14.90;99.90;;;;;;4996620;28;20053;-69
2023/05/14 07:45:48;;;;;;;13.38;8.75;;;14.90;99.90;;;;;;4995867;28;20421;-70
2023/05/14 07:48:14;;;;;;;15.23;8.80;;;15.00;99.90;;;;;;4996321;28;20105;-69
2023/05/14 07:50:40;;;;;;;15.00;9.18;;;15.00;99.90;;;;;;4995983;28;20094;-68
2023/05/14 07:53:05;;;;;;;12.52;8.77;;;15.10;99.90;;;;;;4995279;28;20085;-71
2023/05/14 07:55:31;;;;;;;9.35;8.18;;;15.10;99.90;;;;;;4996943;28;20409;-70
2023/05/14 07:57:57;;;;;;;14.43;8.77;;;15.20;99.90;;;;;;4994910;28;20043;-70
2023/05/14 08:00:22;;;;;;;12.93;8.35;;;15.20;99.90;;;;;;4994811;28;20065;-72
2023/05/14 08:02:49;;;;;;;11.93;9.23;;;15.20;99.90;;;;;;4996784;28;20181;-70
2023/05/14 08:05:14;;;;;;;11.80;9.00;;;15.20;99.90;;;;;;4995858;28;20046;-70
2023/05/14 08:07:40;;;;;;;9.73;8.63;;;15.30;99.90;;;;;;4996099;28;20053;-69
2023/05/14 08:10:06;;;;;;;9.20;8.27;;;15.30;99.90;;;;;;4994897;28;20042;-70
2023/05/14 08:12:33;;;;;;;10.82;8.45;;;15.30;99.90;;;;;;4995854;28;20108;-70
2023/05/14 08:14:59;;;;;;;9.60;8.55;;;15.30;99.90;;;;;;4995345;28;20406;-73
2023/05/14 08:17:25;;;;;;;9.85;8.82;;;15.30;99.90;;;;;;4995691;28;20502;-74
2023/05/14 08:19:51;;;;;;;11.18;8.40;;;15.30;99.90;;;;;;4995404;28;20097;-71
2023/05/14 08:22:16;;;;;;;10.40;8.80;;;15.30;99.90;;;;;;4995921;28;20054;-71
2023/05/14 08:24:42;;;;;;;9.77;8.50;;;15.40;99.90;;;;;;4995982;28;20434;-72
2023/05/14 08:27:08;;;;;;;10.55;8.90;;;15.40;99.90;;;;;;4994377;28;20046;-71
2023/05/14 08:29:34;;;;;;;9.98;8.07;;;15.50;99.90;;;;;;4995525;28;20074;-71
2023/05/14 08:32:00;;;;;;;8.75;7.85;;;15.60;99.90;;;;;;4995220;28;20070;-71
2023/05/14 08:34:26;;;;;;;10.77;8.45;;;15.60;99.90;;;;;;4995548;28;20077;-71
2023/05/14 08:36:52;;;;;;;9.55;8.10;;;15.70;99.90;;;;;;4994350;28;20054;-71
2023/05/14 08:39:18;;;;;;;10.13;7.22;;;15.70;99.90;;;;;;4995437;28;20054;-72
2023/05/14 08:41:44;;;;;;;8.55;7.47;;;15.80;99.90;;;;;;4996149;28;20042;-71
2023/05/14 08:44:13;;;;;;;8.40;6.97;;;15.80;99.90;;;;;;4995179;28;20132;-71
2023/05/14 08:46:39;;;;;;;8.52;7.05;;;15.90;99.90;;;;;;4995836;28;20381;-70
2023/05/14 08:49:32;;;;;;;9.88;7.18;;;15.90;99.90;;;;;;4995510;28;20133;-77
2023/05/14 08:51:59;;;;;;;9.95;6.45;;;16.00;99.90;;;;;;4995817;28;20058;-70
2023/05/14 08:54:25;;;;;;;9.23;6.28;;;16.00;99.90;;;;;;4995120;28;20053;-74
2023/05/14 08:56:52;;;;;;;8.65;6.65;;;16.10;99.90;;;;;;4994661;28;20490;-72
2023/05/14 08:59:18;;;;;;;9.48;6.28;;;16.10;99.90;;;;;;4993876;28;20058;-69
2023/05/14 09:01:47;;;;;;;7.85;6.45;;;16.20;99.90;;;;;;4995055;28;20061;-69
2023/05/14 09:04:16;;;;;;;8.82;6.32;;;16.20;99.90;;;;;;4994886;28;20508;-70
2023/05/14 09:06:42;;;;;;;7.82;5.85;;;16.30;99.90;;;;;;4994938;28;20384;-71
2023/05/14 09:09:10;;;;;;;7.70;5.55;;;16.30;99.90;;;;;;4994871;28;20047;-70
2023/05/14 09:11:44;;;;;;;6.03;5.43;;;16.40;99.90;;;;;;4994922;28;20050;-68
2023/05/14 09:14:10;;;;;;;6.47;5.15;;;16.50;99.90;;;;;;4995251;28;20046;-69
2023/05/14 09:16:37;;;;;;;5.95;5.07;;;16.50;99.90;;;;;;4994863;28;20533;-69
2023/05/14 09:19:04;;;;;;;6.50;5.45;;;16.60;99.90;;;;;;4993407;28;20042;-69
2023/05/14 09:21:30;;;;;;;5.85;4.80;;;16.60;99.90;;;;;;4995275;28;20050;-69
2023/05/14 09:23:56;;;;;;;5.28;4.10;;;16.70;99.90;;;;;;4994672;28;20121;-69
2023/05/14 09:26:25;;;;;;;5.32;3.72;;;16.80;99.90;;;;;;4994561;28;20166;-69
2023/05/14 09:28:54;;;;;;;4.85;3.10;;;16.90;99.90;;;;;;4994633;28;20046;-77
2023/05/14 09:31:19;;;;;;;4.22;3.03;;;17.10;99.90;;;;;;4994555;28;20100;-75
2023/05/14 09:33:51;;;;;;;3.05;2.75;;;17.20;99.90;;;;;;4994535;28;20042;-72
2023/05/14 09:36:18;;;;;;;4.13;3.03;;;17.30;99.90;;;;;;4994612;28;20042;-74
2023/05/14 09:38:44;;;;;;;4.22;2.90;;;17.40;99.90;;;;;;4994527;28;20062;-73
2023/05/14 09:41:10;;;;;;;5.68;2.42;;;17.50;99.90;;;;;;4993004;28;20509;-73
2023/05/14 09:43:36;;;;;;;2.75;2.50;;;17.60;99.90;;;;;;4994935;28;20053;-73
2023/05/14 09:46:01;;;;;;;4.32;2.60;;;17.70;99.90;;;;;;4993968;28;20048;-73
2023/05/14 09:48:28;;;;;;;3.15;2.85;;;17.80;99.90;;;;;;4994453;28;20050;-73
2023/05/14 09:50:54;;;;;;;3.40;3.00;;;17.90;99.90;;;;;;4994916;28;20050;-74
2023/05/14 09:53:19;;;;;;;3.47;2.65;;;17.90;99.90;;;;;;4994301;28;20375;-73
2023/05/14 09:55:45;;;;;;;3.33;2.92;;;18.00;99.90;;;;;;4993397;28;20117;-74
2023/05/14 09:58:13;;;;;;;3.90;3.30;;;18.10;99.90;;;;;;4994016;28;20506;-72
2023/05/14 10:00:43;;;;;;;3.97;3.58;;;18.10;99.90;;;;;;4992965;28;20062;-74
2023/05/14 10:03:12;;;;;;;4.82;3.83;;;18.10;99.90;;;;;;4994509;28;20046;-75
2023/05/14 10:05:40;;;;;;;4.28;3.75;;;18.20;99.90;;;;;;4994954;28;20117;-70
2023/05/14 10:08:40;;;;;;;5.32;3.85;;;18.20;99.90;;;;;;4994262;28;20050;-70
2023/05/14 10:11:12;;;;;;;4.25;3.90;;;18.30;99.90;;;;;;4994222;28;20442;-69
2023/05/14 10:13:41;;;;;;;4.95;3.97;;;18.40;99.90;;;;;;4994132;28;20129;-70
2023/05/14 10:16:19;;;;;;;6.90;4.13;;;18.50;99.90;;;;;;4994910;28;20078;-69
2023/05/14 10:18:47;;;;;;;5.43;4.22;;;18.60;99.90;;;;;;4993608;28;20057;-68
2023/05/14 10:21:15;;;;;;;7.55;4.72;;;18.60;99.90;;;;;;4992866;28;20051;-68
2023/05/14 10:23:42;;;;;;;6.57;4.30;;;18.70;99.90;;;;;;4994055;28;20051;-68
2023/05/14 10:26:09;;;;;;;4.18;3.72;;;18.70;99.90;;;;;;4994008;28;20082;-68
2023/05/14 10:28:35;;;;;;;5.57;4.22;;;18.80;99.90;;;;;;4993879;28;20055;-69
2023/05/14 10:31:01;;;;;;;6.28;4.50;;;18.80;99.90;;;;;;4993638;28;20078;-68
2023/05/14 10:33:26;;;;;;;4.35;3.95;;;18.80;99.90;;;;;;4996951;28;20125;-68
2023/05/14 10:36:06;;;;;;;5.28;4.00;;;18.90;99.90;;;;;;4997378;28;20081;-68
2023/05/14 10:38:33;;;;;;;5.28;4.10;;;19.00;99.90;;;;;;4997826;28;20046;-69
2023/05/14 10:41:02;;;;;;;5.13;4.10;;;19.00;99.90;;;;;;4996991;28;20514;-68
2023/05/14 10:43:29;;;;;;;6.57;4.18;;;19.10;99.90;;;;;;4996428;28;20090;-68
2023/05/14 10:45:56;;;;;;;5.65;3.90;;;19.10;99.90;;;;;;4996995;28;20085;-69
2023/05/14 10:48:22;;;;;;;6.28;4.35;;;19.20;99.90;;;;;;4996118;28;20061;-69
2023/05/14 10:50:50;;;;;;;4.60;4.20;;;19.20;99.90;;;;;;4996052;28;20477;-69
2023/05/14 10:53:16;;;;;;;5.22;3.75;;;19.20;99.90;;;;;;4997039;28;20042;-68
2023/05/14 10:55:43;;;;;;;3.90;3.50;;;19.20;99.90;;;;;;4996858;28;20049;-69
2023/05/14 10:58:12;;;;;;;6.10;3.92;;;19.30;99.90;;;;;;4995780;28;20050;-69
2023/05/14 11:00:38;;;;;;;4.88;4.13;;;19.30;99.90;;;;;;4997459;28;20054;-68
2023/05/14 11:03:06;;;;;;;6.25;4.20;;;19.40;99.90;;;;;;4997230;28;20483;-68
2023/05/14 11:05:36;;;;;;;6.80;4.30;;;19.40;99.90;;;;;;4996008;28;20053;-69
2023/05/14 11:08:05;;;;;;;7.00;4.97;;;19.40;99.90;;;;;;4997428;28;20093;-68
2023/05/14 11:10:31;;;;;;;4.78;4.28;;;19.50;99.90;;;;;;4996150;28;20046;-77
2023/05/14 11:12:57;;;;;;;6.05;3.88;;;19.50;99.90;;;;;;4997283;28;20042;-70
2023/05/14 11:15:25;;;;;;;5.47;3.78;;;19.50;99.90;;;;;;4995953;28;20121;-69
2023/05/14 11:17:52;;;;;;;4.70;4.25;;;19.60;99.90;;;;;;4995902;28;20089;-73
2023/05/14 11:20:19;;;;;;;4.18;3.75;;;19.60;99.90;;;;;;4997631;28;20050;-71
2023/05/14 11:22:46;;;;;;;5.80;4.20;;;19.60;99.90;;;;;;4996817;28;20399;-72
2023/05/14 11:25:13;;;;;;;4.72;4.15;;;19.60;99.90;;;;;;4997518;28;20046;-72
2023/05/14 11:27:40;;;;;;;6.28;4.38;;;19.60;99.90;;;;;;4997361;28;20042;-73
2023/05/14 11:30:16;;;;;;;6.53;4.28;;;19.60;99.90;;;;;;4995548;28;20042;-73
2023/05/14 11:32:44;;;;;;;3.50;3.20;;;19.70;99.90;;;;;;4996698;28;20108;-74
2023/05/14 11:35:10;;;;;;;4.70;3.80;;;19.80;99.90;;;;;;4996561;28;20046;-70
2023/05/14 11:37:36;;;;;;;5.28;3.58;;;19.80;99.90;;;;;;4979374;28;20156;-71
2023/05/14 11:40:06;;;;;;;4.25;3.50;;;19.90;99.90;;;;;;4996485;28;20053;-73
2023/05/14 11:42:32;;;;;;;5.43;4.05;;;20.00;99.90;;;;;;4995602;28;20562;-72
2023/05/14 11:44:58;;;;;;;4.72;3.40;;;20.20;99.90;;;;;;4996563;28;20082;-74
2023/05/14 11:47:23;;;;;;;4.07;3.67;;;20.30;99.90;;;;;;4995170;28;20506;-73
2023/05/14 11:49:49;;;;;;;3.80;3.50;;;20.30;99.90;;;;;;4994903;28;20113;-73
2023/05/14 11:52:18;;;;;;;4.45;2.92;;;20.40;99.90;;;;;;4997164;28;20050;-73
2023/05/14 11:54:44;;;;;;;5.68;3.80;;;20.40;99.90;;;;;;4996288;28;20046;-72
2023/05/14 11:57:12;;;;;;;6.10;4.10;;;20.40;99.90;;;;;;4996764;28;20478;-72
2023/05/14 11:59:38;;;;;;;6.63;4.05;;;20.40;99.90;;;;;;4995920;28;20058;-73
2023/05/14 12:02:07;;;;;;;3.97;3.58;;;20.50;99.90;;;;;;4996617;28;20069;-74
2023/05/14 12:04:33;;;;;;;4.80;3.13;;;20.40;99.90;;;;;;4996573;28;20046;-75
2023/05/14 12:07:06;;;;;;;4.40;3.95;;;20.50;99.90;;;;;;4995253;28;20157;-73
2023/05/14 12:09:39;;;;;;;5.70;3.90;;;20.50;99.90;;;;;;4995937;28;20050;-71
2023/05/14 12:12:10;;;;;;;3.80;2.95;;;20.50;99.90;;;;;;4995858;28;20495;-69
2023/05/14 12:14:42;;;;;;;4.40;4.00;;;20.60;99.90;;;;;;4994665;28;20053;-70
2023/05/14 12:17:16;;;;;;;3.40;3.10;;;20.60;99.90;;;;;;4995827;28;20084;-70
2023/05/14 12:19:44;;;;;;;3.97;2.88;;;20.60;99.90;;;;;;4994496;28;20050;-71
2023/05/14 12:22:10;;;;;;;3.67;3.08;;;20.60;99.90;;;;;;4996463;28;20058;-72
2023/05/14 12:24:38;;;;;;;4.70;3.15;;;20.70;99.90;;;;;;4995638;28;20038;-71
2023/05/14 12:27:04;;;;;;;3.03;2.58;;;20.70;99.90;;;;;;4978628;28;20061;-72
2023/05/14 12:29:30;;;;;;;3.60;2.85;;;20.70;99.90;;;;;;4996269;28;20079;-72
2023/05/14 12:31:59;;;;;;;3.47;3.00;;;20.70;99.90;;;;;;4996110;28;20540;-72
2023/05/14 12:34:25;;;;;;;3.25;2.95;;;20.70;99.40;;;;;;4995497;28;20390;-72
2023/05/14 12:36:51;;;;;;;3.58;2.83;;;20.70;99.30;;;;;;4995400;28;20050;-72
2023/05/14 12:39:17;;;;;;;2.85;2.53;;;20.80;99.20;;;;;;4995533;28;20050;-72